Terminal Aerodrome Forecast
Issued by NWS Duluth, MN

Home | Current Version | Previous Version | Text Only | Print | Product List | Glossary On
Versions: 1 2 3 4 5 6 7 8 9 10 11 12 13 14 15
000
FTUS43 KDLH 242300
TAFINL
TAF
KINL 242337Z 2500/2524 33010KT P6SM -SN OVC018
     FM250400 30006KT P6SM FEW022
     FM251000 26004KT P6SM BKN040
     FM251700 24005KT P6SM BKN035=

USA.gov is the U.S. government's official web portal to all federal, state and local government web resources and services.